sensor_id;sensor_type;location;lat;lon;timestamp;P1;durP1;ratioP1;P2;durP2;ratioP2
23169;SDS011;11753;43.144;24.714;2022-12-19T00:02:30;32.97;;;19.02;;
23169;SDS011;11753;43.144;24.714;2022-12-19T00:03:31;35.72;;;19.27;;
23169;SDS011;11753;43.144;24.714;2022-12-19T00:04:32;35.40;;;19.48;;
23169;SDS011;11753;43.144;24.714;2022-12-19T00:05:37;32.97;;;17.88;;
23169;SDS011;11753;43.144;24.714;2022-12-19T00:06:40;34.42;;;18.83;;
23169;SDS011;11753;43.144;24.714;2022-12-19T00:07:41;34.05;;;18.48;;
23169;SDS011;11753;43.144;24.714;2022-12-19T00:08:45;34.15;;;18.58;;
23169;SDS011;11753;43.144;24.714;2022-12-19T00:09:48;36.63;;;19.13;;
23169;SDS011;11753;43.144;24.714;2022-12-19T00:10:56;37.13;;;20.13;;
23169;SDS011;11753;43.144;24.714;2022-12-19T00:12:01;36.60;;;18.67;;
23169;SDS011;11753;43.144;24.714;2022-12-19T00:13:02;32.13;;;18.27;;
23169;SDS011;11753;43.144;24.714;2022-12-19T00:14:03;31.60;;;18.23;;
23169;SDS011;11753;43.144;24.714;2022-12-19T00:15:04;34.42;;;19.50;;
23169;SDS011;11753;43.144;24.714;2022-12-19T00:16:27;29.92;;;18.38;;
23169;SDS011;11753;43.144;24.714;2022-12-19T00:17:28;34.90;;;19.35;;
23169;SDS011;11753;43.144;24.714;2022-12-19T00:18:29;33.95;;;19.13;;
23169;SDS011;11753;43.144;24.714;2022-12-19T00:19:30;36.53;;;20.42;;
23169;SDS011;11753;43.144;24.714;2022-12-19T00:20:31;37.60;;;19.90;;
23169;SDS011;11753;43.144;24.714;2022-12-19T00:21:33;35.03;;;19.17;;
23169;SDS011;11753;43.144;24.714;2022-12-19T00:22:34;35.58;;;20.45;;
23169;SDS011;11753;43.144;24.714;2022-12-19T00:23:35;34.88;;;20.13;;
23169;SDS011;11753;43.144;24.714;2022-12-19T00:24:36;32.15;;;19.40;;
23169;SDS011;11753;43.144;24.714;2022-12-19T00:25:36;34.60;;;20.10;;
23169;SDS011;11753;43.144;24.714;2022-12-19T00:26:37;34.30;;;19.95;;
23169;SDS011;11753;43.144;24.714;2022-12-19T00:27:39;36.75;;;21.02;;
23169;SDS011;11753;43.144;24.714;2022-12-19T00:28:40;34.65;;;20.90;;
23169;SDS011;11753;43.144;24.714;2022-12-19T00:29:42;36.03;;;20.08;;
23169;SDS011;11753;43.144;24.714;2022-12-19T00:30:43;34.42;;;20.10;;
23169;SDS011;11753;43.144;24.714;2022-12-19T00:31:44;34.25;;;19.25;;
23169;SDS011;11753;43.144;24.714;2022-12-19T00:32:45;33.58;;;19.15;;
23169;SDS011;11753;43.144;24.714;2022-12-19T00:33:47;35.90;;;20.45;;
23169;SDS011;11753;43.144;24.714;2022-12-19T00:34:48;36.90;;;19.92;;
23169;SDS011;11753;43.144;24.714;2022-12-19T00:35:49;33.40;;;20.00;;
23169;SDS011;11753;43.144;24.714;2022-12-19T00:36:50;34.20;;;20.17;;
23169;SDS011;11753;43.144;24.714;2022-12-19T00:37:51;32.78;;;19.67;;
23169;SDS011;11753;43.144;24.714;2022-12-19T00:38:53;35.40;;;20.35;;
23169;SDS011;11753;43.144;24.714;2022-12-19T00:39:56;36.28;;;20.35;;
23169;SDS011;11753;43.144;24.714;2022-12-19T00:41:10;35.20;;;21.23;;
23169;SDS011;11753;43.144;24.714;2022-12-19T00:42:16;33.17;;;19.85;;
23169;SDS011;11753;43.144;24.714;2022-12-19T00:43:17;36.83;;;20.40;;
23169;SDS011;11753;43.144;24.714;2022-12-19T00:44:20;36.00;;;20.95;;
23169;SDS011;11753;43.144;24.714;2022-12-19T00:45:22;32.10;;;19.00;;
23169;SDS011;11753;43.144;24.714;2022-12-19T00:46:23;33.63;;;20.30;;
23169;SDS011;11753;43.144;24.714;2022-12-19T00:47:26;32.88;;;19.23;;
23169;SDS011;11753;43.144;24.714;2022-12-19T00:48:27;34.58;;;18.88;;
23169;SDS011;11753;43.144;24.714;2022-12-19T00:49:29;33.97;;;19.27;;
23169;SDS011;11753;43.144;24.714;2022-12-19T00:50:31;35.28;;;19.73;;
23169;SDS011;11753;43.144;24.714;2022-12-19T00:51:33;38.60;;;20.00;;
23169;SDS011;11753;43.144;24.714;2022-12-19T00:52:36;37.05;;;20.95;;
23169;SDS011;11753;43.144;24.714;2022-12-19T00:53:37;34.47;;;19.60;;
23169;SDS011;11753;43.144;24.714;2022-12-19T00:54:38;35.08;;;19.27;;
23169;SDS011;11753;43.144;24.714;2022-12-19T00:55:39;35.83;;;20.27;;
23169;SDS011;11753;43.144;24.714;2022-12-19T00:56:40;34.70;;;19.80;;
23169;SDS011;11753;43.144;24.714;2022-12-19T00:57:41;32.53;;;19.98;;
23169;SDS011;11753;43.144;24.714;2022-12-19T00:58:42;35.35;;;19.52;;
23169;SDS011;11753;43.144;24.714;2022-12-19T00:59:43;35.10;;;20.55;;
23169;SDS011;11753;43.144;24.714;2022-12-19T01:00:44;34.80;;;18.73;;
23169;SDS011;11753;43.144;24.714;2022-12-19T01:01:47;34.22;;;19.40;;
23169;SDS011;11753;43.144;24.714;2022-12-19T01:02:48;34.97;;;19.17;;
23169;SDS011;11753;43.144;24.714;2022-12-19T01:03:49;37.53;;;19.65;;
23169;SDS011;11753;43.144;24.714;2022-12-19T01:04:51;34.75;;;18.88;;
23169;SDS011;11753;43.144;24.714;2022-12-19T01:05:52;35.40;;;18.45;;
23169;SDS011;11753;43.144;24.714;2022-12-19T01:06:53;31.08;;;17.35;;
23169;SDS011;11753;43.144;24.714;2022-12-19T01:07:54;30.27;;;18.52;;
23169;SDS011;11753;43.144;24.714;2022-12-19T01:08:55;38.60;;;19.70;;
23169;SDS011;11753;43.144;24.714;2022-12-19T01:09:56;33.42;;;19.20;;
23169;SDS011;11753;43.144;24.714;2022-12-19T01:10:57;30.95;;;18.35;;
23169;SDS011;11753;43.144;24.714;2022-12-19T01:11:58;40.17;;;23.17;;
23169;SDS011;11753;43.144;24.714;2022-12-19T01:13:18;33.45;;;18.60;;
23169;SDS011;11753;43.144;24.714;2022-12-19T01:14:20;32.95;;;19.70;;
23169;SDS011;11753;43.144;24.714;2022-12-19T01:15:21;32.13;;;18.25;;
23169;SDS011;11753;43.144;24.714;2022-12-19T01:16:22;30.70;;;17.77;;
23169;SDS011;11753;43.144;24.714;2022-12-19T01:17:23;32.35;;;18.52;;
23169;SDS011;11753;43.144;24.714;2022-12-19T01:18:24;33.28;;;19.17;;
23169;SDS011;11753;43.144;24.714;2022-12-19T01:19:26;36.67;;;19.15;;
23169;SDS011;11753;43.144;24.714;2022-12-19T01:20:27;40.65;;;22.40;;
23169;SDS011;11753;43.144;24.714;2022-12-19T01:21:31;36.20;;;19.65;;
23169;SDS011;11753;43.144;24.714;2022-12-19T01:22:35;33.72;;;19.67;;
23169;SDS011;11753;43.144;24.714;2022-12-19T01:23:36;38.20;;;20.23;;
23169;SDS011;11753;43.144;24.714;2022-12-19T01:24:37;30.83;;;18.65;;
23169;SDS011;11753;43.144;24.714;2022-12-19T01:25:38;33.45;;;19.23;;
23169;SDS011;11753;43.144;24.714;2022-12-19T01:26:39;33.97;;;18.67;;
23169;SDS011;11753;43.144;24.714;2022-12-19T01:27:40;35.75;;;19.27;;
23169;SDS011;11753;43.144;24.714;2022-12-19T01:28:41;34.17;;;19.40;;
23169;SDS011;11753;43.144;24.714;2022-12-19T01:29:42;33.75;;;18.80;;
23169;SDS011;11753;43.144;24.714;2022-12-19T01:30:42;33.50;;;20.17;;
23169;SDS011;11753;43.144;24.714;2022-12-19T01:31:47;36.80;;;21.85;;
23169;SDS011;11753;43.144;24.714;2022-12-19T01:32:48;43.00;;;25.30;;
23169;SDS011;11753;43.144;24.714;2022-12-19T01:33:49;39.40;;;22.33;;
23169;SDS011;11753;43.144;24.714;2022-12-19T01:34:50;38.03;;;21.63;;
23169;SDS011;11753;43.144;24.714;2022-12-19T01:35:51;36.28;;;21.55;;
23169;SDS011;11753;43.144;24.714;2022-12-19T01:36:52;41.67;;;23.63;;
23169;SDS011;11753;43.144;24.714;2022-12-19T01:37:53;38.85;;;23.45;;
23169;SDS011;11753;43.144;24.714;2022-12-19T01:38:55;40.03;;;22.92;;
23169;SDS011;11753;43.144;24.714;2022-12-19T01:39:57;39.17;;;22.67;;
23169;SDS011;11753;43.144;24.714;2022-12-19T01:40:58;37.85;;;23.38;;
23169;SDS011;11753;43.144;24.714;2022-12-19T01:41:59;37.95;;;22.70;;
23169;SDS011;11753;43.144;24.714;2022-12-19T01:43:00;38.33;;;22.17;;
23169;SDS011;11753;43.144;24.714;2022-12-19T01:44:03;36.25;;;21.95;;
23169;SDS011;11753;43.144;24.714;2022-12-19T01:46:09;33.97;;;19.70;;
23169;SDS011;11753;43.144;24.714;2022-12-19T01:47:13;35.22;;;20.00;;
23169;SDS011;11753;43.144;24.714;2022-12-19T01:48:15;36.38;;;20.20;;
23169;SDS011;11753;43.144;24.714;2022-12-19T01:49:22;33.13;;;20.27;;
23169;SDS011;11753;43.144;24.714;2022-12-19T01:50:37;32.22;;;19.83;;
23169;SDS011;11753;43.144;24.714;2022-12-19T01:51:45;31.60;;;18.90;;
23169;SDS011;11753;43.144;24.714;2022-12-19T01:52:47;30.23;;;17.92;;
23169;SDS011;11753;43.144;24.714;2022-12-19T01:53:50;34.03;;;20.60;;
23169;SDS011;11753;43.144;24.714;2022-12-19T01:54:56;33.60;;;19.20;;
23169;SDS011;11753;43.144;24.714;2022-12-19T01:55:57;29.95;;;17.95;;
23169;SDS011;11753;43.144;24.714;2022-12-19T01:57:01;34.20;;;19.00;;
23169;SDS011;11753;43.144;24.714;2022-12-19T01:58:06;31.70;;;18.65;;
23169;SDS011;11753;43.144;24.714;2022-12-19T01:59:13;31.63;;;18.88;;
23169;SDS011;11753;43.144;24.714;2022-12-19T02:00:18;32.20;;;18.20;;
23169;SDS011;11753;43.144;24.714;2022-12-19T02:01:19;34.88;;;20.50;;
23169;SDS011;11753;43.144;24.714;2022-12-19T02:03:37;34.70;;;20.95;;
23169;SDS011;11753;43.144;24.714;2022-12-19T02:04:43;34.65;;;20.48;;
23169;SDS011;11753;43.144;24.714;2022-12-19T02:05:45;38.55;;;20.88;;
23169;SDS011;11753;43.144;24.714;2022-12-19T02:06:46;33.17;;;20.55;;
23169;SDS011;11753;43.144;24.714;2022-12-19T02:07:48;34.92;;;20.88;;
23169;SDS011;11753;43.144;24.714;2022-12-19T02:08:50;37.65;;;23.73;;
23169;SDS011;11753;43.144;24.714;2022-12-19T02:09:54;38.78;;;22.58;;
23169;SDS011;11753;43.144;24.714;2022-12-19T02:10:56;39.33;;;22.00;;
23169;SDS011;11753;43.144;24.714;2022-12-19T02:11:58;40.97;;;23.23;;
23169;SDS011;11753;43.144;24.714;2022-12-19T02:12:59;37.20;;;21.20;;
23169;SDS011;11753;43.144;24.714;2022-12-19T02:14:00;35.63;;;21.50;;
23169;SDS011;11753;43.144;24.714;2022-12-19T02:15:01;36.58;;;21.33;;
23169;SDS011;11753;43.144;24.714;2022-12-19T02:18:40;38.95;;;22.73;;
23169;SDS011;11753;43.144;24.714;2022-12-19T02:21:19;39.10;;;20.20;;
23169;SDS011;11753;43.144;24.714;2022-12-19T02:25:21;37.88;;;20.23;;
23169;SDS011;11753;43.144;24.714;2022-12-19T02:36:18;33.88;;;20.20;;
23169;SDS011;11753;43.144;24.714;2022-12-19T02:37:31;33.88;;;18.08;;
23169;SDS011;11753;43.144;24.714;2022-12-19T02:38:37;34.58;;;19.90;;
23169;SDS011;11753;43.144;24.714;2022-12-19T02:40:09;33.42;;;19.17;;
23169;SDS011;11753;43.144;24.714;2022-12-19T02:41:26;35.80;;;20.15;;
23169;SDS011;11753;43.144;24.714;2022-12-19T02:42:50;32.45;;;19.38;;
23169;SDS011;11753;43.144;24.714;2022-12-19T02:43:57;32.00;;;18.30;;
23169;SDS011;11753;43.144;24.714;2022-12-19T02:44:59;33.95;;;19.13;;
23169;SDS011;11753;43.144;24.714;2022-12-19T02:46:02;31.50;;;18.77;;
23169;SDS011;11753;43.144;24.714;2022-12-19T02:47:05;31.98;;;19.08;;
23169;SDS011;11753;43.144;24.714;2022-12-19T02:48:07;33.15;;;19.08;;
23169;SDS011;11753;43.144;24.714;2022-12-19T02:49:09;35.00;;;20.55;;
23169;SDS011;11753;43.144;24.714;2022-12-19T02:50:11;28.75;;;17.73;;
23169;SDS011;11753;43.144;24.714;2022-12-19T02:51:12;31.63;;;17.75;;
23169;SDS011;11753;43.144;24.714;2022-12-19T02:53:19;29.90;;;16.70;;
23169;SDS011;11753;43.144;24.714;2022-12-19T02:54:19;29.25;;;18.27;;
23169;SDS011;11753;43.144;24.714;2022-12-19T02:55:21;33.22;;;18.85;;
23169;SDS011;11753;43.144;24.714;2022-12-19T02:56:28;33.45;;;18.13;;
23169;SDS011;11753;43.144;24.714;2022-12-19T02:57:58;31.52;;;17.27;;
23169;SDS011;11753;43.144;24.714;2022-12-19T03:00:22;33.22;;;18.80;;
23169;SDS011;11753;43.144;24.714;2022-12-19T03:03:06;29.15;;;17.70;;
23169;SDS011;11753;43.144;24.714;2022-12-19T03:04:34;32.65;;;17.98;;
23169;SDS011;11753;43.144;24.714;2022-12-19T03:11:09;29.38;;;16.88;;
23169;SDS011;11753;43.144;24.714;2022-12-19T03:12:17;30.20;;;17.08;;
23169;SDS011;11753;43.144;24.714;2022-12-19T03:14:30;32.35;;;18.40;;
23169;SDS011;11753;43.144;24.714;2022-12-19T03:15:32;32.47;;;19.48;;
23169;SDS011;11753;43.144;24.714;2022-12-19T03:16:34;36.17;;;19.95;;
23169;SDS011;11753;43.144;24.714;2022-12-19T03:17:36;31.38;;;17.92;;
23169;SDS011;11753;43.144;24.714;2022-12-19T03:18:38;31.25;;;17.95;;
23169;SDS011;11753;43.144;24.714;2022-12-19T03:19:39;31.90;;;18.02;;
23169;SDS011;11753;43.144;24.714;2022-12-19T03:21:51;32.25;;;18.50;;
23169;SDS011;11753;43.144;24.714;2022-12-19T03:22:52;33.05;;;19.50;;
23169;SDS011;11753;43.144;24.714;2022-12-19T03:23:53;33.17;;;19.20;;
23169;SDS011;11753;43.144;24.714;2022-12-19T03:24:56;30.98;;;18.08;;
23169;SDS011;11753;43.144;24.714;2022-12-19T03:25:59;32.85;;;19.33;;
23169;SDS011;11753;43.144;24.714;2022-12-19T03:27:19;34.53;;;20.13;;
23169;SDS011;11753;43.144;24.714;2022-12-19T03:29:54;30.88;;;18.00;;
23169;SDS011;11753;43.144;24.714;2022-12-19T03:31:03;30.42;;;18.20;;
23169;SDS011;11753;43.144;24.714;2022-12-19T03:32:07;29.77;;;17.27;;
23169;SDS011;11753;43.144;24.714;2022-12-19T03:33:12;30.45;;;18.27;;
23169;SDS011;11753;43.144;24.714;2022-12-19T03:34:25;30.08;;;17.70;;
23169;SDS011;11753;43.144;24.714;2022-12-19T03:35:42;31.58;;;18.75;;
23169;SDS011;11753;43.144;24.714;2022-12-19T03:36:46;33.45;;;19.40;;
23169;SDS011;11753;43.144;24.714;2022-12-19T03:37:51;32.53;;;19.75;;
23169;SDS011;11753;43.144;24.714;2022-12-19T03:38:55;35.42;;;19.60;;
23169;SDS011;11753;43.144;24.714;2022-12-19T03:39:59;35.05;;;20.23;;
23169;SDS011;11753;43.144;24.714;2022-12-19T03:41:03;33.53;;;19.42;;
23169;SDS011;11753;43.144;24.714;2022-12-19T03:42:07;35.92;;;20.17;;
23169;SDS011;11753;43.144;24.714;2022-12-19T03:43:29;35.42;;;20.02;;
23169;SDS011;11753;43.144;24.714;2022-12-19T03:44:33;28.52;;;17.35;;
23169;SDS011;11753;43.144;24.714;2022-12-19T03:46:40;28.92;;;17.90;;
23169;SDS011;11753;43.144;24.714;2022-12-19T03:47:55;34.58;;;18.98;;
23169;SDS011;11753;43.144;24.714;2022-12-19T03:49:01;28.23;;;17.55;;
23169;SDS011;11753;43.144;24.714;2022-12-19T03:50:02;31.90;;;18.20;;
23169;SDS011;11753;43.144;24.714;2022-12-19T03:51:16;28.65;;;17.08;;
23169;SDS011;11753;43.144;24.714;2022-12-19T03:52:40;31.15;;;17.67;;
23169;SDS011;11753;43.144;24.714;2022-12-19T03:53:54;29.20;;;17.60;;
23169;SDS011;11753;43.144;24.714;2022-12-19T03:57:46;28.52;;;16.75;;
23169;SDS011;11753;43.144;24.714;2022-12-19T03:58:58;28.25;;;16.73;;
23169;SDS011;11753;43.144;24.714;2022-12-19T04:00:07;30.90;;;18.02;;
23169;SDS011;11753;43.144;24.714;2022-12-19T04:01:14;27.42;;;16.88;;
23169;SDS011;11753;43.144;24.714;2022-12-19T04:02:15;32.78;;;17.83;;
23169;SDS011;11753;43.144;24.714;2022-12-19T04:03:18;31.15;;;17.77;;
23169;SDS011;11753;43.144;24.714;2022-12-19T04:04:21;26.73;;;16.73;;
23169;SDS011;11753;43.144;24.714;2022-12-19T04:05:25;30.63;;;17.90;;
23169;SDS011;11753;43.144;24.714;2022-12-19T04:06:30;33.80;;;20.10;;
23169;SDS011;11753;43.144;24.714;2022-12-19T04:07:34;36.78;;;20.63;;
23169;SDS011;11753;43.144;24.714;2022-12-19T04:08:36;32.78;;;19.08;;
23169;SDS011;11753;43.144;24.714;2022-12-19T04:09:40;46.42;;;26.33;;
23169;SDS011;11753;43.144;24.714;2022-12-19T04:10:45;58.83;;;32.03;;
23169;SDS011;11753;43.144;24.714;2022-12-19T04:12:01;57.22;;;29.95;;
23169;SDS011;11753;43.144;24.714;2022-12-19T04:13:09;47.38;;;26.77;;
23169;SDS011;11753;43.144;24.714;2022-12-19T04:14:16;46.45;;;25.42;;
23169;SDS011;11753;43.144;24.714;2022-12-19T04:15:35;47.17;;;27.27;;
23169;SDS011;11753;43.144;24.714;2022-12-19T04:18:16;45.08;;;25.75;;
23169;SDS011;11753;43.144;24.714;2022-12-19T04:19:28;41.90;;;24.75;;
23169;SDS011;11753;43.144;24.714;2022-12-19T04:20:35;42.50;;;25.23;;
23169;SDS011;11753;43.144;24.714;2022-12-19T04:21:45;51.55;;;28.48;;
23169;SDS011;11753;43.144;24.714;2022-12-19T04:24:00;46.03;;;26.42;;
23169;SDS011;11753;43.144;24.714;2022-12-19T04:25:10;52.88;;;30.83;;
23169;SDS011;11753;43.144;24.714;2022-12-19T04:26:15;42.85;;;24.05;;
23169;SDS011;11753;43.144;24.714;2022-12-19T04:27:19;37.47;;;21.90;;
23169;SDS011;11753;43.144;24.714;2022-12-19T04:28:25;38.28;;;21.77;;
23169;SDS011;11753;43.144;24.714;2022-12-19T04:29:35;35.42;;;19.85;;
23169;SDS011;11753;43.144;24.714;2022-12-19T04:30:38;39.22;;;20.70;;
23169;SDS011;11753;43.144;24.714;2022-12-19T04:31:41;31.52;;;19.42;;
23169;SDS011;11753;43.144;24.714;2022-12-19T04:32:42;33.15;;;18.73;;
23169;SDS011;11753;43.144;24.714;2022-12-19T04:33:44;28.15;;;17.35;;
23169;SDS011;11753;43.144;24.714;2022-12-19T04:34:45;31.65;;;18.48;;
23169;SDS011;11753;43.144;24.714;2022-12-19T04:35:46;31.88;;;18.60;;
23169;SDS011;11753;43.144;24.714;2022-12-19T04:36:47;31.02;;;18.50;;
23169;SDS011;11753;43.144;24.714;2022-12-19T04:37:50;32.17;;;18.35;;
23169;SDS011;11753;43.144;24.714;2022-12-19T04:38:51;32.88;;;18.42;;
23169;SDS011;11753;43.144;24.714;2022-12-19T04:39:53;33.95;;;19.33;;
23169;SDS011;11753;43.144;24.714;2022-12-19T04:40:53;32.40;;;18.17;;
23169;SDS011;11753;43.144;24.714;2022-12-19T04:41:56;33.70;;;18.58;;
23169;SDS011;11753;43.144;24.714;2022-12-19T04:42:57;35.65;;;20.15;;
23169;SDS011;11753;43.144;24.714;2022-12-19T04:43:57;34.22;;;18.48;;
23169;SDS011;11753;43.144;24.714;2022-12-19T04:44:59;36.13;;;19.05;;
23169;SDS011;11753;43.144;24.714;2022-12-19T04:46:00;31.80;;;17.75;;
23169;SDS011;11753;43.144;24.714;2022-12-19T04:47:01;32.15;;;18.50;;
23169;SDS011;11753;43.144;24.714;2022-12-19T04:48:02;32.05;;;18.05;;
23169;SDS011;11753;43.144;24.714;2022-12-19T04:49:03;32.60;;;18.23;;
23169;SDS011;11753;43.144;24.714;2022-12-19T04:50:04;34.10;;;19.48;;
23169;SDS011;11753;43.144;24.714;2022-12-19T04:51:05;32.70;;;18.75;;
23169;SDS011;11753;43.144;24.714;2022-12-19T04:52:06;31.63;;;19.50;;
23169;SDS011;11753;43.144;24.714;2022-12-19T04:53:07;33.22;;;18.48;;
23169;SDS011;11753;43.144;24.714;2022-12-19T04:54:09;31.75;;;17.80;;
23169;SDS011;11753;43.144;24.714;2022-12-19T04:55:10;33.53;;;19.48;;
23169;SDS011;11753;43.144;24.714;2022-12-19T04:56:10;38.38;;;21.45;;
23169;SDS011;11753;43.144;24.714;2022-12-19T04:57:11;247.07;;;144.80;;
23169;SDS011;11753;43.144;24.714;2022-12-19T04:58:12;260.73;;;154.43;;
23169;SDS011;11753;43.144;24.714;2022-12-19T04:59:13;739.92;;;464.05;;
23169;SDS011;11753;43.144;24.714;2022-12-19T05:00:15;743.50;;;474.08;;
23169;SDS011;11753;43.144;24.714;2022-12-19T05:01:16;546.90;;;339.65;;
23169;SDS011;11753;43.144;24.714;2022-12-19T05:02:17;398.98;;;251.88;;
23169;SDS011;11753;43.144;24.714;2022-12-19T05:03:18;351.70;;;225.93;;
23169;SDS011;11753;43.144;24.714;2022-12-19T05:04:19;178.75;;;113.00;;
23169;SDS011;11753;43.144;24.714;2022-12-19T05:05:20;42.75;;;25.85;;
23169;SDS011;11753;43.144;24.714;2022-12-19T05:06:21;44.63;;;25.25;;
23169;SDS011;11753;43.144;24.714;2022-12-19T05:07:22;51.92;;;34.95;;
23169;SDS011;11753;43.144;24.714;2022-12-19T05:08:23;38.78;;;22.45;;
23169;SDS011;11753;43.144;24.714;2022-12-19T05:09:24;36.05;;;21.00;;
23169;SDS011;11753;43.144;24.714;2022-12-19T05:10:25;67.80;;;44.92;;
23169;SDS011;11753;43.144;24.714;2022-12-19T05:11:26;38.13;;;22.65;;
23169;SDS011;11753;43.144;24.714;2022-12-19T05:12:27;39.83;;;21.88;;
23169;SDS011;11753;43.144;24.714;2022-12-19T05:13:28;41.50;;;22.58;;
23169;SDS011;11753;43.144;24.714;2022-12-19T05:14:29;42.70;;;24.10;;
23169;SDS011;11753;43.144;24.714;2022-12-19T05:15:31;37.97;;;21.25;;
23169;SDS011;11753;43.144;24.714;2022-12-19T05:16:32;37.17;;;21.88;;
23169;SDS011;11753;43.144;24.714;2022-12-19T05:17:36;38.25;;;22.02;;
23169;SDS011;11753;43.144;24.714;2022-12-19T05:18:37;44.70;;;25.85;;
23169;SDS011;11753;43.144;24.714;2022-12-19T05:19:39;39.50;;;23.20;;
23169;SDS011;11753;43.144;24.714;2022-12-19T05:20:39;40.78;;;24.20;;
23169;SDS011;11753;43.144;24.714;2022-12-19T05:21:41;45.17;;;28.05;;
23169;SDS011;11753;43.144;24.714;2022-12-19T05:22:42;52.30;;;31.27;;
23169;SDS011;11753;43.144;24.714;2022-12-19T05:23:43;46.88;;;28.55;;
23169;SDS011;11753;43.144;24.714;2022-12-19T05:24:44;44.25;;;26.92;;
23169;SDS011;11753;43.144;24.714;2022-12-19T05:25:45;53.42;;;28.00;;
23169;SDS011;11753;43.144;24.714;2022-12-19T05:26:46;50.78;;;24.00;;
23169;SDS011;11753;43.144;24.714;2022-12-19T05:27:48;48.10;;;26.70;;
23169;SDS011;11753;43.144;24.714;2022-12-19T05:28:49;44.30;;;26.75;;
23169;SDS011;11753;43.144;24.714;2022-12-19T05:29:49;46.95;;;26.48;;
23169;SDS011;11753;43.144;24.714;2022-12-19T05:30:50;44.17;;;25.30;;
23169;SDS011;11753;43.144;24.714;2022-12-19T05:31:51;42.72;;;23.23;;
23169;SDS011;11753;43.144;24.714;2022-12-19T05:32:52;45.35;;;26.60;;
23169;SDS011;11753;43.144;24.714;2022-12-19T05:33:53;41.35;;;24.00;;
23169;SDS011;11753;43.144;24.714;2022-12-19T05:34:54;46.08;;;25.52;;
23169;SDS011;11753;43.144;24.714;2022-12-19T05:35:55;42.80;;;23.75;;
23169;SDS011;11753;43.144;24.714;2022-12-19T05:36:56;42.83;;;23.35;;
23169;SDS011;11753;43.144;24.714;2022-12-19T05:37:57;41.00;;;23.27;;
23169;SDS011;11753;43.144;24.714;2022-12-19T05:38:58;46.38;;;28.27;;
23169;SDS011;11753;43.144;24.714;2022-12-19T05:39:59;43.63;;;26.73;;
23169;SDS011;11753;43.144;24.714;2022-12-19T05:41:10;42.72;;;26.92;;
23169;SDS011;11753;43.144;24.714;2022-12-19T05:42:12;44.17;;;24.77;;
23169;SDS011;11753;43.144;24.714;2022-12-19T05:43:13;41.15;;;22.13;;
23169;SDS011;11753;43.144;24.714;2022-12-19T05:44:14;38.70;;;20.88;;
23169;SDS011;11753;43.144;24.714;2022-12-19T05:45:16;43.50;;;23.75;;
23169;SDS011;11753;43.144;24.714;2022-12-19T05:46:17;42.20;;;23.02;;
23169;SDS011;11753;43.144;24.714;2022-12-19T05:47:18;37.78;;;21.70;;
23169;SDS011;11753;43.144;24.714;2022-12-19T05:48:21;43.42;;;22.75;;
23169;SDS011;11753;43.144;24.714;2022-12-19T05:49:22;40.08;;;22.77;;
23169;SDS011;11753;43.144;24.714;2022-12-19T05:50:22;37.08;;;21.98;;
23169;SDS011;11753;43.144;24.714;2022-12-19T05:51:23;40.80;;;22.77;;
23169;SDS011;11753;43.144;24.714;2022-12-19T05:52:24;39.63;;;23.23;;
23169;SDS011;11753;43.144;24.714;2022-12-19T05:53:25;39.47;;;23.88;;
23169;SDS011;11753;43.144;24.714;2022-12-19T05:54:27;44.25;;;24.02;;
23169;SDS011;11753;43.144;24.714;2022-12-19T05:55:28;36.97;;;23.10;;
23169;SDS011;11753;43.144;24.714;2022-12-19T05:56:28;41.15;;;22.52;;
23169;SDS011;11753;43.144;24.714;2022-12-19T05:57:29;40.50;;;23.30;;
23169;SDS011;11753;43.144;24.714;2022-12-19T05:58:30;37.17;;;22.13;;
23169;SDS011;11753;43.144;24.714;2022-12-19T05:59:32;45.85;;;23.58;;
23169;SDS011;11753;43.144;24.714;2022-12-19T06:00:33;41.78;;;23.13;;
23169;SDS011;11753;43.144;24.714;2022-12-19T06:01:34;43.33;;;24.27;;
23169;SDS011;11753;43.144;24.714;2022-12-19T06:02:35;42.40;;;21.73;;
23169;SDS011;11753;43.144;24.714;2022-12-19T06:03:37;40.70;;;23.40;;
23169;SDS011;11753;43.144;24.714;2022-12-19T06:04:38;44.63;;;24.33;;
23169;SDS011;11753;43.144;24.714;2022-12-19T06:05:39;46.20;;;25.10;;
23169;SDS011;11753;43.144;24.714;2022-12-19T06:06:40;50.30;;;27.73;;
23169;SDS011;11753;43.144;24.714;2022-12-19T06:07:41;47.13;;;26.15;;
23169;SDS011;11753;43.144;24.714;2022-12-19T06:08:42;46.15;;;26.40;;
23169;SDS011;11753;43.144;24.714;2022-12-19T06:09:43;46.28;;;26.02;;
23169;SDS011;11753;43.144;24.714;2022-12-19T06:10:44;41.53;;;24.42;;
23169;SDS011;11753;43.144;24.714;2022-12-19T06:11:45;42.58;;;23.63;;
23169;SDS011;11753;43.144;24.714;2022-12-19T06:12:46;43.13;;;23.08;;
23169;SDS011;11753;43.144;24.714;2022-12-19T06:13:46;41.42;;;22.02;;
23169;SDS011;11753;43.144;24.714;2022-12-19T06:14:47;41.38;;;24.30;;
23169;SDS011;11753;43.144;24.714;2022-12-19T06:15:48;38.67;;;23.42;;
23169;SDS011;11753;43.144;24.714;2022-12-19T06:16:49;43.30;;;23.52;;
23169;SDS011;11753;43.144;24.714;2022-12-19T06:17:52;39.55;;;23.88;;
23169;SDS011;11753;43.144;24.714;2022-12-19T06:18:53;43.00;;;23.25;;
23169;SDS011;11753;43.144;24.714;2022-12-19T06:19:54;44.75;;;23.27;;
23169;SDS011;11753;43.144;24.714;2022-12-19T06:20:59;38.35;;;22.27;;
23169;SDS011;11753;43.144;24.714;2022-12-19T06:22:05;46.30;;;23.80;;
23169;SDS011;11753;43.144;24.714;2022-12-19T06:23:06;41.92;;;24.90;;
23169;SDS011;11753;43.144;24.714;2022-12-19T06:24:07;43.42;;;23.80;;
23169;SDS011;11753;43.144;24.714;2022-12-19T06:25:08;46.53;;;25.42;;
23169;SDS011;11753;43.144;24.714;2022-12-19T06:26:10;43.42;;;23.58;;
23169;SDS011;11753;43.144;24.714;2022-12-19T06:27:14;42.38;;;23.75;;
23169;SDS011;11753;43.144;24.714;2022-12-19T06:28:15;51.80;;;28.48;;
23169;SDS011;11753;43.144;24.714;2022-12-19T06:29:16;48.20;;;27.80;;
23169;SDS011;11753;43.144;24.714;2022-12-19T06:30:17;46.10;;;26.38;;
23169;SDS011;11753;43.144;24.714;2022-12-19T06:31:19;49.72;;;28.15;;
23169;SDS011;11753;43.144;24.714;2022-12-19T06:32:22;43.28;;;26.20;;
23169;SDS011;11753;43.144;24.714;2022-12-19T06:33:23;44.40;;;25.33;;
23169;SDS011;11753;43.144;24.714;2022-12-19T06:34:25;47.50;;;25.38;;
23169;SDS011;11753;43.144;24.714;2022-12-19T06:35:26;41.42;;;23.52;;
23169;SDS011;11753;43.144;24.714;2022-12-19T06:36:28;41.15;;;23.35;;
23169;SDS011;11753;43.144;24.714;2022-12-19T06:37:30;44.25;;;24.25;;
23169;SDS011;11753;43.144;24.714;2022-12-19T06:38:32;45.63;;;27.10;;
23169;SDS011;11753;43.144;24.714;2022-12-19T06:39:33;52.13;;;28.17;;
23169;SDS011;11753;43.144;24.714;2022-12-19T06:40:38;50.75;;;27.27;;
23169;SDS011;11753;43.144;24.714;2022-12-19T06:41:59;39.08;;;24.00;;
23169;SDS011;11753;43.144;24.714;2022-12-19T06:43:19;41.30;;;23.90;;
23169;SDS011;11753;43.144;24.714;2022-12-19T06:44:20;41.38;;;22.73;;
23169;SDS011;11753;43.144;24.714;2022-12-19T06:45:20;41.42;;;24.25;;
23169;SDS011;11753;43.144;24.714;2022-12-19T06:46:21;46.55;;;25.42;;